Paris, TN (38242)

10:27 PM CDT on September 14, 2014 (GMT -0500)
Highway 69 N | Change Station
CLOSE
Current Station
Personal Weather Station
Location: Paris, TN
Elevation: 495 ft
Nearby Weather Stations

Elev 495 ft 36.31 °N, 88.34 °W | Updated 31 seconds ago

Clear
Clear
56.3 °F
Feels Like 56.3 °F
N
0.0
Wind Variable Wind from NNE
Gusts 0.0 mph

Today
High -- | Low -- °F
--% Chance of Precip.
Yesterday
High -- | Low -- °F
Precip. -- in
6:34 AM 7:02 PM
Waning Gibbous, 59% visible
Pressure 30.20 in
Visibility 10.0 miles
Clouds Scattered Clouds 1800 ft
Dew Point 55 °F
Humidity 96%
Rainfall 0.00 in
Snow Depth Not available.
UV 0.0 out of 12
Pollen 8.30 out of 12
Air Quality Not available.
Flu Activity Not available.
METAR KCEY 150315Z AUTO 00000KT 10SM SCT018 15/11 A3020 RMK AO1

More Conditions Fewer Conditions

Pressure 30.20 in
Visibility 10.0 miles
Clouds Scattered Clouds 1800 ft
Dew Point 55 °F
Humidity 96%
Rainfall 0.00 in
Snow Depth Not available.
UV 0.0 out of 12
Pollen 8.30 out of 12
Air Quality Not available.
Flu Activity Not available.
METAR KCEY 150315Z AUTO 00000KT 10SM SCT018 15/11 A3020 RMK AO1

More Conditions Fewer Conditions

10-Day Weather Forecast

Almanac

Astronomy

Sep. 14, 2014 Rise Set
Actual Time 6:34 AM CDT 7:02 PM CDT
Civil Twilight 6:09 AM CDT 7:27 PM CDT
Nautical Twilight 5:38 AM CDT 7:58 PM CDT
Astronomical Twilight 5:07 AM CDT 8:29 PM CDT
Moon 11:04 PM CDT (9/14) 12:30 PM CDT (9/14)
Length of Visible Light 13h 18m
Length of Day
12h 27m
Tomorrow will be 2m 17s shorter.
Waning Gibbous, 59% of the Moon is Illuminated
Today
Waning Gibbous
Sep 15
Last Quarter
Sep 24
New
Oct 1
First Quarter
Oct 8
Full

Today's Extremes

State Highs State Lows

Community

WunderPhotos

Upload Photos

1,753,390 photos uploaded!

WunderBlogs® & News

Nearby

Snow Depth

Station Depth Elevation
No new snow has been reported.

Earthquake Activity

City Distance Mag. Time & Date
No recent earthquake activity has been reported nearby.
Minimum magnitude displayed is 2.5.

Coastal Water Temperatures

Place Temperature
No Stations Reporting

Nearby Weather Stations